sensor_id;sensor_type;location;lat;lon;timestamp;pressure;altitude;pressure_sealevel;temperature;humidity
20077;BME280;12348;42.710;23.378;2023-04-04T00:01:25;93725.63;;;7.28;100.00
20077;BME280;12348;42.710;23.378;2023-04-04T00:03:52;93713.72;;;7.12;100.00
20077;BME280;12348;42.710;23.378;2023-04-04T00:06:19;93708.66;;;7.10;100.00
20077;BME280;12348;42.710;23.378;2023-04-04T00:08:46;93713.41;;;7.13;100.00
20077;BME280;12348;42.710;23.378;2023-04-04T00:11:14;93713.41;;;7.13;100.00
20077;BME280;12348;42.710;23.378;2023-04-04T00:13:41;93720.81;;;7.16;100.00
20077;BME280;12348;42.710;23.378;2023-04-04T00:16:08;93718.34;;;7.20;100.00
20077;BME280;12348;42.710;23.378;2023-04-04T00:18:35;93727.34;;;7.24;100.00
20077;BME280;12348;42.710;23.378;2023-04-04T00:21:02;93727.25;;;7.29;100.00
20077;BME280;12348;42.710;23.378;2023-04-04T00:23:29;93732.84;;;7.41;100.00
20077;BME280;12348;42.710;23.378;2023-04-04T00:25:56;93729.44;;;7.49;100.00
20077;BME280;12348;42.710;23.378;2023-04-04T00:28:24;93732.78;;;7.55;100.00
20077;BME280;12348;42.710;23.378;2023-04-04T00:30:51;93728.81;;;7.52;100.00
20077;BME280;12348;42.710;23.378;2023-04-04T00:33:18;93722.19;;;7.50;100.00
20077;BME280;12348;42.710;23.378;2023-04-04T00:35:46;93725.19;;;7.48;100.00
20077;BME280;12348;42.710;23.378;2023-04-04T00:38:13;93720.00;;;7.52;100.00
20077;BME280;12348;42.710;23.378;2023-04-04T00:40:41;93715.25;;;7.49;100.00
20077;BME280;12348;42.710;23.378;2023-04-04T00:43:09;93704.16;;;7.42;100.00
20077;BME280;12348;42.710;23.378;2023-04-04T00:45:37;93702.59;;;7.41;100.00
20077;BME280;12348;42.710;23.378;2023-04-04T00:48:04;93698.03;;;7.41;100.00
20077;BME280;12348;42.710;23.378;2023-04-04T00:50:32;93692.06;;;7.44;100.00
20077;BME280;12348;42.710;23.378;2023-04-04T00:52:59;93684.31;;;7.43;100.00
20077;BME280;12348;42.710;23.378;2023-04-04T00:55:26;93676.19;;;7.48;100.00
20077;BME280;12348;42.710;23.378;2023-04-04T00:57:53;93679.97;;;7.78;100.00
20077;BME280;12348;42.710;23.378;2023-04-04T01:00:19;93680.69;;;7.92;100.00
20077;BME280;12348;42.710;23.378;2023-04-04T01:02:48;93675.22;;;7.75;100.00
20077;BME280;12348;42.710;23.378;2023-04-04T01:05:15;93678.53;;;7.49;100.00
20077;BME280;12348;42.710;23.378;2023-04-04T01:07:42;93687.44;;;7.36;100.00
20077;BME280;12348;42.710;23.378;2023-04-04T01:10:10;93684.59;;;7.33;100.00
20077;BME280;12348;42.710;23.378;2023-04-04T01:12:37;93685.38;;;7.33;100.00
20077;BME280;12348;42.710;23.378;2023-04-04T01:15:05;93690.16;;;7.98;100.00
20077;BME280;12348;42.710;23.378;2023-04-04T01:17:32;93689.06;;;7.99;100.00
20077;BME280;12348;42.710;23.378;2023-04-04T01:20:04;93692.97;;;7.93;100.00
20077;BME280;12348;42.710;23.378;2023-04-04T01:22:32;93691.34;;;7.84;100.00
20077;BME280;12348;42.710;23.378;2023-04-04T01:25:01;93694.22;;;7.65;100.00
20077;BME280;12348;42.710;23.378;2023-04-04T01:27:31;93689.75;;;7.51;100.00
20077;BME280;12348;42.710;23.378;2023-04-04T01:29:58;93687.19;;;7.46;100.00
20077;BME280;12348;42.710;23.378;2023-04-04T01:32:30;93704.34;;;7.45;100.00
20077;BME280;12348;42.710;23.378;2023-04-04T01:35:11;93695.16;;;7.38;100.00
20077;BME280;12348;42.710;23.378;2023-04-04T01:37:43;93702.84;;;7.31;100.00
20077;BME280;12348;42.710;23.378;2023-04-04T01:40:17;93701.06;;;7.26;100.00
20077;BME280;12348;42.710;23.378;2023-04-04T01:42:47;93700.75;;;7.27;100.00
20077;BME280;12348;42.710;23.378;2023-04-04T01:45:15;93705.28;;;7.18;100.00
20077;BME280;12348;42.710;23.378;2023-04-04T01:47:42;93699.13;;;7.18;100.00
20077;BME280;12348;42.710;23.378;2023-04-04T01:50:10;93694.38;;;7.60;100.00
20077;BME280;12348;42.710;23.378;2023-04-04T01:52:37;93688.28;;;7.45;100.00
20077;BME280;12348;42.710;23.378;2023-04-04T01:55:04;93688.66;;;7.52;100.00
20077;BME280;12348;42.710;23.378;2023-04-04T01:57:31;93682.69;;;7.56;100.00
20077;BME280;12348;42.710;23.378;2023-04-04T01:59:59;93683.19;;;7.89;100.00
20077;BME280;12348;42.710;23.378;2023-04-04T02:02:26;93675.47;;;7.65;100.00
20077;BME280;12348;42.710;23.378;2023-04-04T02:04:53;93671.38;;;7.59;100.00
20077;BME280;12348;42.710;23.378;2023-04-04T02:07:19;93669.69;;;7.40;100.00
20077;BME280;12348;42.710;23.378;2023-04-04T02:09:46;93669.31;;;7.33;100.00
20077;BME280;12348;42.710;23.378;2023-04-04T02:12:13;93678.44;;;7.32;100.00
20077;BME280;12348;42.710;23.378;2023-04-04T02:14:40;93676.38;;;7.29;100.00
20077;BME280;12348;42.710;23.378;2023-04-04T02:17:08;93664.56;;;7.30;100.00
20077;BME280;12348;42.710;23.378;2023-04-04T02:19:35;93671.13;;;7.24;100.00
20077;BME280;12348;42.710;23.378;2023-04-04T02:22:02;93671.94;;;7.24;100.00
20077;BME280;12348;42.710;23.378;2023-04-04T02:24:29;93669.97;;;7.39;100.00
20077;BME280;12348;42.710;23.378;2023-04-04T02:26:56;93670.94;;;7.43;100.00
20077;BME280;12348;42.710;23.378;2023-04-04T02:29:23;93658.84;;;7.45;100.00
20077;BME280;12348;42.710;23.378;2023-04-04T02:31:49;93668.72;;;7.36;100.00
20077;BME280;12348;42.710;23.378;2023-04-04T02:34:17;93659.22;;;7.30;100.00
20077;BME280;12348;42.710;23.378;2023-04-04T02:36:44;93659.81;;;7.27;100.00
20077;BME280;12348;42.710;23.378;2023-04-04T02:39:11;93664.00;;;7.19;100.00
20077;BME280;12348;42.710;23.378;2023-04-04T02:41:38;93664.34;;;7.18;100.00
20077;BME280;12348;42.710;23.378;2023-04-04T02:44:05;93659.25;;;7.16;100.00
20077;BME280;12348;42.710;23.378;2023-04-04T02:46:33;93662.13;;;7.20;100.00
20077;BME280;12348;42.710;23.378;2023-04-04T02:49:00;93667.56;;;7.28;100.00
20077;BME280;12348;42.710;23.378;2023-04-04T02:51:29;93661.56;;;7.32;100.00
20077;BME280;12348;42.710;23.378;2023-04-04T02:53:58;93664.94;;;7.37;100.00
20077;BME280;12348;42.710;23.378;2023-04-04T02:56:25;93668.25;;;7.43;100.00
20077;BME280;12348;42.710;23.378;2023-04-04T02:58:51;93670.94;;;7.43;100.00
20077;BME280;12348;42.710;23.378;2023-04-04T03:01:18;93666.25;;;7.48;100.00
20077;BME280;12348;42.710;23.378;2023-04-04T03:03:45;93665.03;;;7.55;100.00
20077;BME280;12348;42.710;23.378;2023-04-04T03:06:12;93664.16;;;7.68;100.00
20077;BME280;12348;42.710;23.378;2023-04-04T03:08:40;93663.44;;;7.53;100.00
20077;BME280;12348;42.710;23.378;2023-04-04T03:11:07;93660.47;;;7.55;100.00
20077;BME280;12348;42.710;23.378;2023-04-04T03:13:34;93669.13;;;7.52;100.00
20077;BME280;12348;42.710;23.378;2023-04-04T03:16:03;93667.84;;;7.49;100.00
20077;BME280;12348;42.710;23.378;2023-04-04T03:18:30;93663.59;;;7.48;100.00
20077;BME280;12348;42.710;23.378;2023-04-04T03:20:57;93665.91;;;7.41;100.00
20077;BME280;12348;42.710;23.378;2023-04-04T03:23:24;93662.38;;;7.32;100.00
20077;BME280;12348;42.710;23.378;2023-04-04T03:25:52;93670.25;;;7.28;100.00
20077;BME280;12348;42.710;23.378;2023-04-04T03:28:20;93670.06;;;7.25;100.00
20077;BME280;12348;42.710;23.378;2023-04-04T03:30:47;93665.53;;;7.34;100.00
20077;BME280;12348;42.710;23.378;2023-04-04T03:33:14;93657.25;;;7.44;100.00
20077;BME280;12348;42.710;23.378;2023-04-04T03:35:41;93667.84;;;7.49;100.00
20077;BME280;12348;42.710;23.378;2023-04-04T03:38:08;93667.66;;;7.46;100.00
20077;BME280;12348;42.710;23.378;2023-04-04T03:40:35;93659.94;;;7.44;100.00
20077;BME280;12348;42.710;23.378;2023-04-04T03:43:06;93653.78;;;7.44;100.00
20077;BME280;12348;42.710;23.378;2023-04-04T03:45:33;93656.16;;;7.45;100.00
20077;BME280;12348;42.710;23.378;2023-04-04T03:48:01;93658.69;;;7.50;100.00
20077;BME280;12348;42.710;23.378;2023-04-04T03:50:28;93664.41;;;7.58;100.00
20077;BME280;12348;42.710;23.378;2023-04-04T03:52:55;93669.75;;;7.58;100.00
20077;BME280;12348;42.710;23.378;2023-04-04T03:55:23;93667.09;;;7.58;100.00
20077;BME280;12348;42.710;23.378;2023-04-04T03:57:50;93672.44;;;7.58;100.00
20077;BME280;12348;42.710;23.378;2023-04-04T04:00:19;93668.19;;;7.57;100.00
20077;BME280;12348;42.710;23.378;2023-04-04T04:02:46;93665.66;;;7.51;100.00
20077;BME280;12348;42.710;23.378;2023-04-04T04:05:13;93669.75;;;7.58;100.00
20077;BME280;12348;42.710;23.378;2023-04-04T04:07:42;93675.16;;;7.89;100.00
20077;BME280;12348;42.710;23.378;2023-04-04T04:10:09;93671.88;;;8.00;100.00
20077;BME280;12348;42.710;23.378;2023-04-04T04:12:36;93672.16;;;7.90;100.00
20077;BME280;12348;42.710;23.378;2023-04-04T04:15:03;93668.34;;;7.83;100.00
20077;BME280;12348;42.710;23.378;2023-04-04T04:17:32;93668.03;;;7.84;100.00
20077;BME280;12348;42.710;23.378;2023-04-04T04:19:58;93666.88;;;7.76;100.00
20077;BME280;12348;42.710;23.378;2023-04-04T04:22:25;93664.50;;;7.75;100.00
20077;BME280;12348;42.710;23.378;2023-04-04T04:24:52;93671.09;;;7.69;100.00
20077;BME280;12348;42.710;23.378;2023-04-04T04:27:18;93675.97;;;7.67;100.00
20077;BME280;12348;42.710;23.378;2023-04-04T04:29:45;93684.81;;;7.67;100.00
20077;BME280;12348;42.710;23.378;2023-04-04T04:32:15;93686.97;;;7.65;100.00
20077;BME280;12348;42.710;23.378;2023-04-04T04:34:43;93693.09;;;7.57;100.00
20077;BME280;12348;42.710;23.378;2023-04-04T04:37:10;93693.94;;;7.97;100.00
20077;BME280;12348;42.710;23.378;2023-04-04T04:39:37;93697.41;;;8.29;100.00
20077;BME280;12348;42.710;23.378;2023-04-04T04:42:04;93700.88;;;7.98;100.00
20077;BME280;12348;42.710;23.378;2023-04-04T04:44:31;93704.91;;;7.87;100.00
20077;BME280;12348;42.710;23.378;2023-04-04T04:46:57;93702.88;;;7.84;100.00
20077;BME280;12348;42.710;23.378;2023-04-04T04:49:25;93696.22;;;7.82;100.00
20077;BME280;12348;42.710;23.378;2023-04-04T04:51:53;93711.03;;;7.79;100.00
20077;BME280;12348;42.710;23.378;2023-04-04T04:54:20;93705.38;;;8.12;100.00
20077;BME280;12348;42.710;23.378;2023-04-04T04:56:46;93703.88;;;7.97;100.00
20077;BME280;12348;42.710;23.378;2023-04-04T04:59:13;93705.41;;;7.89;100.00
20077;BME280;12348;42.710;23.378;2023-04-04T05:01:40;93708.09;;;7.89;100.00
20077;BME280;12348;42.710;23.378;2023-04-04T05:04:07;93717.91;;;8.02;100.00
20077;BME280;12348;42.710;23.378;2023-04-04T05:06:35;93705.28;;;7.94;100.00
20077;BME280;12348;42.710;23.378;2023-04-04T05:09:04;93725.47;;;7.92;100.00
20077;BME280;12348;42.710;23.378;2023-04-04T05:11:31;93724.88;;;8.04;100.00
20077;BME280;12348;42.710;23.378;2023-04-04T05:13:58;93728.22;;;8.09;100.00
20077;BME280;12348;42.710;23.378;2023-04-04T05:16:25;93729.34;;;8.17;100.00
20077;BME280;12348;42.710;23.378;2023-04-04T05:18:51;93736.63;;;8.25;100.00
20077;BME280;12348;42.710;23.378;2023-04-04T05:21:18;93725.31;;;8.68;100.00
20077;BME280;12348;42.710;23.378;2023-04-04T05:23:45;93734.34;;;8.89;100.00
20077;BME280;12348;42.710;23.378;2023-04-04T05:26:14;93739.69;;;8.72;100.00
20077;BME280;12348;42.710;23.378;2023-04-04T05:28:41;93748.63;;;8.59;100.00
20077;BME280;12348;42.710;23.378;2023-04-04T05:31:08;93742.81;;;8.65;100.00
20077;BME280;12348;42.710;23.378;2023-04-04T05:33:35;93745.09;;;8.89;100.00
20077;BME280;12348;42.710;23.378;2023-04-04T05:36:01;93748.56;;;8.98;100.00
20077;BME280;12348;42.710;23.378;2023-04-04T05:38:28;93747.97;;;9.19;100.00
20077;BME280;12348;42.710;23.378;2023-04-04T05:40:55;93748.56;;;8.98;100.00
20077;BME280;12348;42.710;23.378;2023-04-04T05:43:23;93753.66;;;9.00;100.00
20077;BME280;12348;42.710;23.378;2023-04-04T05:45:50;93749.53;;;9.03;100.00
20077;BME280;12348;42.710;23.378;2023-04-04T05:48:17;93755.84;;;8.98;100.00
20077;BME280;12348;42.710;23.378;2023-04-04T05:50:44;93753.91;;;8.81;100.00
20077;BME280;12348;42.710;23.378;2023-04-04T05:53:11;93760.88;;;8.82;100.00
20077;BME280;12348;42.710;23.378;2023-04-04T05:55:38;93754.56;;;8.95;100.00
20077;BME280;12348;42.710;23.378;2023-04-04T05:58:05;93750.16;;;8.99;100.00
20077;BME280;12348;42.710;23.378;2023-04-04T06:00:33;93753.50;;;9.14;100.00
20077;BME280;12348;42.710;23.378;2023-04-04T06:03:00;93753.50;;;9.40;100.00
20077;BME280;12348;42.710;23.378;2023-04-04T06:05:27;93750.19;;;9.17;100.00
20077;BME280;12348;42.710;23.378;2023-04-04T06:07:54;93763.28;;;9.10;100.00
20077;BME280;12348;42.710;23.378;2023-04-04T06:10:21;93763.44;;;9.22;100.00
20077;BME280;12348;42.710;23.378;2023-04-04T06:12:48;93756.50;;;9.30;100.00
20077;BME280;12348;42.710;23.378;2023-04-04T06:15:16;93761.28;;;9.41;100.00
20077;BME280;12348;42.710;23.378;2023-04-04T06:17:44;93757.31;;;9.65;100.00
20077;BME280;12348;42.710;23.378;2023-04-04T06:20:11;93762.69;;;9.56;100.00
20077;BME280;12348;42.710;23.378;2023-04-04T06:22:38;93761.59;;;9.57;100.00
20077;BME280;12348;42.710;23.378;2023-04-04T06:25:06;93766.78;;;9.62;100.00
20077;BME280;12348;42.710;23.378;2023-04-04T06:27:35;93769.47;;;9.54;100.00
20077;BME280;12348;42.710;23.378;2023-04-04T06:30:02;93774.84;;;9.54;100.00
20077;BME280;12348;42.710;23.378;2023-04-04T06:32:30;93773.59;;;9.51;100.00
20077;BME280;12348;42.710;23.378;2023-04-04T06:34:59;93787.47;;;9.44;100.00
20077;BME280;12348;42.710;23.378;2023-04-04T06:37:26;93787.31;;;9.15;100.00
20077;BME280;12348;42.710;23.378;2023-04-04T06:39:53;93795.47;;;8.53;100.00
20077;BME280;12348;42.710;23.378;2023-04-04T06:42:21;93802.13;;;7.79;100.00
20077;BME280;12348;42.710;23.378;2023-04-04T06:44:48;93807.31;;;7.39;100.00
20077;BME280;12348;42.710;23.378;2023-04-04T06:47:15;93812.34;;;7.18;100.00
20077;BME280;12348;42.710;23.378;2023-04-04T06:49:42;93813.56;;;6.98;100.00
20077;BME280;12348;42.710;23.378;2023-04-04T06:52:11;93813.47;;;6.76;100.00
20077;BME280;12348;42.710;23.378;2023-04-04T06:54:38;93820.91;;;6.65;100.00
20077;BME280;12348;42.710;23.378;2023-04-04T06:57:06;93835.16;;;6.61;100.00
20077;BME280;12348;42.710;23.378;2023-04-04T06:59:33;93837.34;;;6.59;100.00
20077;BME280;12348;42.710;23.378;2023-04-04T07:01:59;93844.66;;;6.53;100.00
20077;BME280;12348;42.710;23.378;2023-04-04T07:04:26;93850.41;;;6.46;100.00
20077;BME280;12348;42.710;23.378;2023-04-04T07:06:56;93855.75;;;6.46;100.00
20077;BME280;12348;42.710;23.378;2023-04-04T07:09:25;93858.19;;;6.29;100.00
20077;BME280;12348;42.710;23.378;2023-04-04T07:11:52;93871.59;;;6.10;100.00
20077;BME280;12348;42.710;23.378;2023-04-04T07:14:19;93877.75;;;6.11;100.00
20077;BME280;12348;42.710;23.378;2023-04-04T07:16:49;93882.28;;;5.91;100.00
20077;BME280;12348;42.710;23.378;2023-04-04T07:19:16;93890.03;;;5.74;100.00
20077;BME280;12348;42.710;23.378;2023-04-04T07:21:43;93893.34;;;5.66;100.00
20077;BME280;12348;42.710;23.378;2023-04-04T07:24:10;93901.38;;;5.66;100.00
20077;BME280;12348;42.710;23.378;2023-04-04T07:26:38;93895.88;;;5.57;100.00
20077;BME280;12348;42.710;23.378;2023-04-04T07:29:05;93912.75;;;5.52;100.00
20077;BME280;12348;42.710;23.378;2023-04-04T07:31:32;93902.66;;;5.49;100.00
20077;BME280;12348;42.710;23.378;2023-04-04T07:33:59;93900.03;;;5.44;100.00
20077;BME280;12348;42.710;23.378;2023-04-04T07:36:25;93895.72;;;5.48;100.00
20077;BME280;12348;42.710;23.378;2023-04-04T07:38:52;93916.63;;;5.41;100.00
20077;BME280;12348;42.710;23.378;2023-04-04T07:41:19;93923.47;;;5.28;100.00
20077;BME280;12348;42.710;23.378;2023-04-04T07:43:48;93922.69;;;5.28;100.00
20077;BME280;12348;42.710;23.378;2023-04-04T07:46:15;93933.94;;;5.25;100.00
20077;BME280;12348;42.710;23.378;2023-04-04T07:48:42;93920.66;;;5.20;100.00
20077;BME280;12348;42.710;23.378;2023-04-04T07:51:09;93932.47;;;5.14;100.00
20077;BME280;12348;42.710;23.378;2023-04-04T07:53:36;93924.13;;;5.20;100.00
20077;BME280;12348;42.710;23.378;2023-04-04T07:56:03;93938.66;;;5.09;100.00
20077;BME280;12348;42.710;23.378;2023-04-04T07:58:31;93947.28;;;5.01;100.00
20077;BME280;12348;42.710;23.378;2023-04-04T08:01:00;93948.13;;;4.96;100.00
20077;BME280;12348;42.710;23.378;2023-04-04T08:03:27;93932.25;;;4.86;100.00
20077;BME280;12348;42.710;23.378;2023-04-04T08:05:53;93953.59;;;4.81;100.00
20077;BME280;12348;42.710;23.378;2023-04-04T08:08:20;93957.25;;;4.90;100.00
20077;BME280;12348;42.710;23.378;2023-04-04T08:10:47;93948.13;;;4.96;100.00
20077;BME280;12348;42.710;23.378;2023-04-04T08:13:14;93954.38;;;4.86;100.00
20077;BME280;12348;42.710;23.378;2023-04-04T08:15:42;93953.81;;;4.90;100.00
20077;BME280;12348;42.710;23.378;2023-04-04T08:18:10;93964.34;;;4.76;100.00
20077;BME280;12348;42.710;23.378;2023-04-04T08:20:38;93972.03;;;4.77;100.00
20077;BME280;12348;42.710;23.378;2023-04-04T08:23:04;93977.72;;;4.71;100.00
20077;BME280;12348;42.710;23.378;2023-04-04T08:25:31;93981.75;;;4.68;100.00
20077;BME280;12348;42.710;23.378;2023-04-04T08:27:59;93987.63;;;4.65;100.00
20077;BME280;12348;42.710;23.378;2023-04-04T08:30:28;93985.38;;;4.48;100.00
20077;BME280;12348;42.710;23.378;2023-04-04T08:32:55;93991.28;;;4.40;100.00
20077;BME280;12348;42.710;23.378;2023-04-04T08:35:23;93996.88;;;4.44;100.00
20077;BME280;12348;42.710;23.378;2023-04-04T08:37:50;93992.84;;;4.46;100.00
20077;BME280;12348;42.710;23.378;2023-04-04T08:40:17;93989.53;;;4.30;100.00
20077;BME280;12348;42.710;23.378;2023-04-04T08:42:44;93981.78;;;4.29;100.00
20077;BME280;12348;42.710;23.378;2023-04-04T08:45:16;94005.03;;;4.23;100.00
20077;BME280;12348;42.710;23.378;2023-04-04T08:47:43;94001.03;;;4.21;100.00
20077;BME280;12348;42.710;23.378;2023-04-04T08:50:12;94009.31;;;4.19;100.00
20077;BME280;12348;42.710;23.378;2023-04-04T08:52:41;94015.69;;;4.23;100.00
20077;BME280;12348;42.710;23.378;2023-04-04T08:55:09;94010.38;;;4.18;100.00
20077;BME280;12348;42.710;23.378;2023-04-04T08:57:37;94018.38;;;4.18;100.00
20077;BME280;12348;42.710;23.378;2023-04-04T09:00:05;94018.28;;;4.33;100.00
20077;BME280;12348;42.710;23.378;2023-04-04T09:02:36;94024.00;;;4.51;100.00
20077;BME280;12348;42.710;23.378;2023-04-04T09:05:05;94032.63;;;4.72;100.00
20077;BME280;12348;42.710;23.378;2023-04-04T09:07:34;94021.22;;;4.95;100.00
20077;BME280;12348;42.710;23.378;2023-04-04T09:10:03;94034.69;;;4.80;100.00
20077;BME280;12348;42.710;23.378;2023-04-04T09:12:31;94045.50;;;4.65;100.00
20077;BME280;12348;42.710;23.378;2023-04-04T09:15:01;94039.56;;;4.73;100.00
20077;BME280;12348;42.710;23.378;2023-04-04T09:17:29;94053.28;;;4.56;100.00
20077;BME280;12348;42.710;23.378;2023-04-04T09:19:57;94053.06;;;4.47;100.00
20077;BME280;12348;42.710;23.378;2023-04-04T09:22:28;94056.63;;;4.37;100.00
20077;BME280;12348;42.710;23.378;2023-04-04T09:24:55;94055.78;;;4.42;100.00
20077;BME280;12348;42.710;23.378;2023-04-04T09:27:23;94051.31;;;4.32;100.00
20077;BME280;12348;42.710;23.378;2023-04-04T09:29:50;94051.31;;;4.32;100.00
20077;BME280;12348;42.710;23.378;2023-04-04T09:32:19;94042.03;;;4.25;100.00
20077;BME280;12348;42.710;23.378;2023-04-04T09:34:47;94047.84;;;4.32;100.00
20077;BME280;12348;42.710;23.378;2023-04-04T09:37:15;94050.94;;;4.49;100.00
20077;BME280;12348;42.710;23.378;2023-04-04T09:39:43;94036.47;;;4.55;100.00
20077;BME280;12348;42.710;23.378;2023-04-04T09:42:10;94053.78;;;4.63;100.00
20077;BME280;12348;42.710;23.378;2023-04-04T09:44:38;94052.22;;;4.52;100.00
20077;BME280;12348;42.710;23.378;2023-04-04T09:47:23;94050.41;;;4.81;100.00
20077;BME280;12348;42.710;23.378;2023-04-04T09:49:50;94052.22;;;5.15;100.00
20077;BME280;12348;42.710;23.378;2023-04-04T09:52:18;94049.75;;;5.24;100.00
20077;BME280;12348;42.710;23.378;2023-04-04T09:54:54;94055.34;;;4.98;100.00
20077;BME280;12348;42.710;23.378;2023-04-04T09:57:21;94055.09;;;4.95;100.00
20077;BME280;12348;42.710;23.378;2023-04-04T09:59:49;94049.09;;;4.79;100.00
20077;BME280;12348;42.710;23.378;2023-04-04T10:02:16;94041.72;;;4.71;100.00
20077;BME280;12348;42.710;23.378;2023-04-04T10:04:44;94064.63;;;4.72;100.00
20077;BME280;12348;42.710;23.378;2023-04-04T10:07:12;94051.66;;;4.89;100.00
20077;BME280;12348;42.710;23.378;2023-04-04T10:09:39;94071.19;;;5.14;100.00
20077;BME280;12348;42.710;23.378;2023-04-04T10:12:09;94078.81;;;5.25;100.00
20077;BME280;12348;42.710;23.378;2023-04-04T10:14:36;94056.31;;;5.07;100.00
20077;BME280;12348;42.710;23.378;2023-04-04T10:17:08;94078.03;;;5.25;100.00
20077;BME280;12348;42.710;23.378;2023-04-04T10:19:36;94075.03;;;5.55;100.00
20077;BME280;12348;42.710;23.378;2023-04-04T10:22:05;94058.06;;;5.46;100.00
20077;BME280;12348;42.710;23.378;2023-04-04T10:24:32;94090.50;;;5.34;100.00
20077;BME280;12348;42.710;23.378;2023-04-04T10:26:59;94089.03;;;5.18;100.00
20077;BME280;12348;42.710;23.378;2023-04-04T10:29:26;94094.69;;;5.11;100.00
20077;BME280;12348;42.710;23.378;2023-04-04T10:31:58;94106.50;;;5.05;100.00
20077;BME280;12348;42.710;23.378;2023-04-04T10:34:34;94099.28;;;5.06;100.00
20077;BME280;12348;42.710;23.378;2023-04-04T10:37:07;94099.34;;;4.96;100.00
20077;BME280;12348;42.710;23.378;2023-04-04T10:39:37;94097.25;;;4.93;100.00
20077;BME280;12348;42.710;23.378;2023-04-04T10:42:07;94095.66;;;4.92;100.00
20077;BME280;12348;42.710;23.378;2023-04-04T10:44:37;94091.34;;;5.01;100.00
20077;BME280;12348;42.710;23.378;2023-04-04T10:47:09;94105.88;;;5.14;100.00
20077;BME280;12348;42.710;23.378;2023-04-04T10:49:41;94106.25;;;5.02;100.00
20077;BME280;12348;42.710;23.378;2023-04-04T10:52:10;94113.97;;;5.03;100.00
20077;BME280;12348;42.710;23.378;2023-04-04T10:54:38;94121.19;;;5.03;100.00
20077;BME280;12348;42.710;23.378;2023-04-04T10:57:05;94118.81;;;4.96;100.00
20077;BME280;12348;42.710;23.378;2023-04-04T10:59:32;94118.03;;;4.61;100.00
20077;BME280;12348;42.710;23.378;2023-04-04T11:02:00;94123.28;;;4.72;100.00
20077;BME280;12348;42.710;23.378;2023-04-04T11:04:30;94112.44;;;4.58;100.00
20077;BME280;12348;42.710;23.378;2023-04-04T11:07:08;94107.94;;;4.53;100.00
20077;BME280;12348;42.710;23.378;2023-04-04T11:09:46;94123.66;;;4.55;100.00
20077;BME280;12348;42.710;23.378;2023-04-04T11:12:13;94119.59;;;4.62;100.00
20077;BME280;12348;42.710;23.378;2023-04-04T11:14:54;94125.06;;;4.42;100.00
20077;BME280;12348;42.710;23.378;2023-04-04T11:17:39;94135.97;;;4.46;100.00
20077;BME280;12348;42.710;23.378;2023-04-04T11:20:07;94141.19;;;4.66;100.00
20077;BME280;12348;42.710;23.378;2023-04-04T11:22:35;94144.81;;;4.80;100.00
20077;BME280;12348;42.710;23.378;2023-04-04T11:25:33;94144.13;;;4.65;100.00
20077;BME280;12348;42.710;23.378;2023-04-04T11:28:04;94140.41;;;4.16;100.00
20077;BME280;12348;42.710;23.378;2023-04-04T11:30:36;94148.06;;;4.28;100.00
20077;BME280;12348;42.710;23.378;2023-04-04T11:33:03;94161.09;;;4.29;100.00
20077;BME280;12348;42.710;23.378;2023-04-04T11:35:30;94155.91;;;4.04;100.00
20077;BME280;12348;42.710;23.378;2023-04-04T11:37:59;94159.28;;;4.20;100.00
20077;BME280;12348;42.710;23.378;2023-04-04T11:40:35;94150.78;;;4.18;100.00
20077;BME280;12348;42.710;23.378;2023-04-04T11:43:06;94155.31;;;4.17;100.00
20077;BME280;12348;42.710;23.378;2023-04-04T11:45:35;94149.16;;;4.22;100.00
20077;BME280;12348;42.710;23.378;2023-04-04T11:48:04;94159.88;;;4.06;100.00
20077;BME280;12348;42.710;23.378;2023-04-04T11:50:35;94156.94;;;4.03;100.00
20077;BME280;12348;42.710;23.378;2023-04-04T11:53:08;94162.59;;;3.91;100.00
20077;BME280;12348;42.710;23.378;2023-04-04T11:55:39;94162.28;;;4.03;100.00
20077;BME280;12348;42.710;23.378;2023-04-04T11:58:08;94160.69;;;4.02;100.00
20077;BME280;12348;42.710;23.378;2023-04-04T12:00:36;94147.13;;;4.03;100.00
20077;BME280;12348;42.710;23.378;2023-04-04T12:03:04;94159.09;;;3.96;100.00
20077;BME280;12348;42.710;23.378;2023-04-04T12:05:31;94162.63;;;3.86;100.00
20077;BME280;12348;42.710;23.378;2023-04-04T12:07:59;94140.53;;;3.80;100.00
20077;BME280;12348;42.710;23.378;2023-04-04T12:10:30;94161.06;;;3.70;100.00
20077;BME280;12348;42.710;23.378;2023-04-04T12:12:58;94169.88;;;3.60;100.00
20077;BME280;12348;42.710;23.378;2023-04-04T12:15:27;94149.09;;;3.62;100.00
20077;BME280;12348;42.710;23.378;2023-04-04T12:17:54;94164.03;;;3.53;100.00
20077;BME280;12348;42.710;23.378;2023-04-04T12:20:22;94157.66;;;3.49;100.00
20077;BME280;12348;42.710;23.378;2023-04-04T12:22:49;94166.69;;;3.53;100.00
20077;BME280;12348;42.710;23.378;2023-04-04T12:25:18;94177.88;;;3.55;100.00
20077;BME280;12348;42.710;23.378;2023-04-04T12:27:46;94177.59;;;3.67;100.00
20077;BME280;12348;42.710;23.378;2023-04-04T12:30:16;94160.53;;;3.68;100.00
20077;BME280;12348;42.710;23.378;2023-04-04T12:32:43;94180.78;;;3.63;100.00
20077;BME280;12348;42.710;23.378;2023-04-04T12:35:11;94156.84;;;3.53;100.00
20077;BME280;12348;42.710;23.378;2023-04-04T12:37:55;94166.13;;;3.71;100.00
20077;BME280;12348;42.710;23.378;2023-04-04T12:40:22;94168.78;;;3.71;100.00
20077;BME280;12348;42.710;23.378;2023-04-04T12:42:50;94178.84;;;3.84;100.00
20077;BME280;12348;42.710;23.378;2023-04-04T12:45:20;94165.03;;;3.82;100.00
20077;BME280;12348;42.710;23.378;2023-04-04T12:47:51;94187.66;;;3.70;100.00
20077;BME280;12348;42.710;23.378;2023-04-04T12:50:21;94185.31;;;3.63;100.00
20077;BME280;12348;42.710;23.378;2023-04-04T12:52:51;94189.84;;;3.47;100.00
20077;BME280;12348;42.710;23.378;2023-04-04T12:55:19;94186.94;;;3.49;100.00